Time;durP1;ratioP1;P1;durP2;ratioP2;P2;SDS_P1;SDS_P2;PMS_P1;PMS_P2;Temp;Humidity;BMP_temperature;BMP_pressure;BME280_temperature;BME280_humidity;BME280_pressure;Samples;Min_cycle;Max_cycle;Signal;HPM_P1;HPM_P2
2023/12/17 00:01:26;;;;;;;7.32;3.70;;;2.50;99.90;;;;;;4893307;29;20463;-74
2023/12/17 00:03:52;;;;;;;7.15;3.45;;;2.40;99.90;;;;;;4892921;29;20039;-73
2023/12/17 00:06:18;;;;;;;5.30;2.80;;;2.30;99.90;;;;;;4892560;29;20504;-74
2023/12/17 00:08:43;;;;;;;5.88;3.42;;;2.00;99.90;;;;;;4893785;29;20188;-74
2023/12/17 00:11:10;;;;;;;5.97;3.10;;;2.10;99.90;;;;;;4893015;29;20584;-74
2023/12/17 00:13:36;;;;;;;6.68;3.40;;;2.40;99.90;;;;;;4891954;29;20036;-75
2023/12/17 00:16:05;;;;;;;6.03;3.10;;;2.30;99.90;;;;;;4893915;29;20227;-73
2023/12/17 00:18:32;;;;;;;7.10;3.28;;;2.10;99.90;;;;;;4894445;29;20056;-75
2023/12/17 00:20:58;;;;;;;8.07;3.08;;;2.00;99.90;;;;;;4892719;29;20064;-74
2023/12/17 00:23:23;;;;;;;8.75;3.53;;;2.20;99.90;;;;;;4892119;29;20071;-75
2023/12/17 00:25:49;;;;;;;8.70;3.53;;;2.20;99.90;;;;;;4893705;29;20024;-74
2023/12/17 00:28:15;;;;;;;7.78;3.92;;;2.30;99.90;;;;;;4893505;29;20037;-74
2023/12/17 00:30:40;;;;;;;6.43;3.70;;;2.40;99.90;;;;;;4893821;29;20031;-74
2023/12/17 00:33:06;;;;;;;4.85;2.90;;;2.50;99.90;;;;;;4894107;29;20048;-74
2023/12/17 00:35:31;;;;;;;7.43;3.83;;;2.40;99.90;;;;;;4891422;29;20155;-74
2023/12/17 00:37:57;;;;;;;6.28;3.30;;;2.50;99.90;;;;;;4897218;29;20494;-74
2023/12/17 00:40:23;;;;;;;7.88;3.47;;;2.30;99.90;;;;;;4898431;29;20051;-73
2023/12/17 00:42:49;;;;;;;7.05;3.58;;;2.20;99.90;;;;;;4900396;29;20139;-75
2023/12/17 00:45:14;;;;;;;5.53;2.50;;;2.30;99.90;;;;;;4900640;29;20034;-74
2023/12/17 00:47:40;;;;;;;6.57;3.10;;;2.30;99.90;;;;;;4901811;29;20036;-74
2023/12/17 00:50:06;;;;;;;6.03;2.67;;;2.40;99.90;;;;;;4900115;29;20067;-75
2023/12/17 00:52:33;;;;;;;5.90;3.08;;;2.50;99.90;;;;;;4898583;29;20754;-75
2023/12/17 00:54:59;;;;;;;5.95;2.95;;;2.50;99.90;;;;;;4900687;29;20597;-74
2023/12/17 00:57:25;;;;;;;7.47;3.33;;;2.40;99.90;;;;;;4899790;29;20059;-74
2023/12/17 00:59:50;;;;;;;6.57;3.60;;;2.50;99.90;;;;;;4901197;29;20074;-74
2023/12/17 01:02:16;;;;;;;5.18;2.80;;;2.40;99.90;;;;;;4901982;29;20475;-75
2023/12/17 01:04:42;;;;;;;6.25;3.33;;;2.40;99.90;;;;;;4899427;29;20041;-74
2023/12/17 01:07:07;;;;;;;7.40;2.67;;;2.30;99.90;;;;;;4900428;29;20041;-75
2023/12/17 01:09:33;;;;;;;5.68;2.75;;;2.20;99.90;;;;;;4900443;29;20127;-75
2023/12/17 01:12:02;;;;;;;6.07;3.35;;;2.20;99.90;;;;;;4900353;29;20040;-75
2023/12/17 01:14:32;;;;;;;4.53;2.72;;;2.20;99.90;;;;;;4899986;29;20042;-74
2023/12/17 01:16:58;;;;;;;6.78;3.17;;;2.20;99.90;;;;;;4899309;29;20040;-74
2023/12/17 01:19:23;;;;;;;7.90;3.53;;;2.20;99.90;;;;;;4880759;29;20052;-75
2023/12/17 01:21:49;;;;;;;7.05;4.07;;;2.20;99.90;;;;;;4879798;29;20042;-74
2023/12/17 01:24:15;;;;;;;8.82;5.25;;;2.00;99.90;;;;;;4882862;29;20052;-74
2023/12/17 01:26:40;;;;;;;7.22;3.55;;;2.10;99.90;;;;;;4881058;29;20045;-75
2023/12/17 01:29:06;;;;;;;4.47;2.80;;;2.20;99.90;;;;;;4880288;29;20036;-74
2023/12/17 01:31:31;;;;;;;6.65;2.65;;;2.10;99.90;;;;;;4881990;29;20036;-73
2023/12/17 01:33:57;;;;;;;10.90;2.65;;;2.00;99.90;;;;;;4879157;29;20132;-75
2023/12/17 01:36:23;;;;;;;9.45;3.95;;;2.20;99.90;;;;;;4880178;29;20041;-74
2023/12/17 01:38:48;;;;;;;8.25;3.65;;;2.20;99.90;;;;;;4882172;29;20052;-74
2023/12/17 01:41:14;;;;;;;5.45;3.47;;;2.20;99.90;;;;;;4880788;29;20044;-74
2023/12/17 01:43:40;;;;;;;9.98;3.78;;;2.10;99.90;;;;;;4880551;29;20048;-74
2023/12/17 01:46:06;;;;;;;7.55;3.50;;;2.10;99.90;;;;;;4882625;29;20763;-74
2023/12/17 01:48:32;;;;;;;6.38;3.45;;;2.10;99.90;;;;;;4880157;29;20488;-74
2023/12/17 01:50:58;;;;;;;6.25;3.38;;;1.90;99.90;;;;;;4880911;29;20041;-74
2023/12/17 01:53:24;;;;;;;6.50;3.47;;;1.90;99.90;;;;;;4880064;29;20105;-74
2023/12/17 01:55:51;;;;;;;7.97;4.25;;;1.60;99.90;;;;;;4880894;29;20048;-75
2023/12/17 01:58:17;;;;;;;6.40;3.30;;;1.70;99.90;;;;;;4879686;29;20073;-74
2023/12/17 02:00:46;;;;;;;6.05;2.55;;;1.60;99.90;;;;;;4881411;29;20039;-75
2023/12/17 02:03:11;;;;;;;6.35;3.15;;;1.50;99.90;;;;;;4880014;29;20044;-74
2023/12/17 02:05:37;;;;;;;5.07;2.38;;;1.50;99.90;;;;;;4879994;29;20032;-75
2023/12/17 02:08:03;;;;;;;5.03;2.35;;;1.60;99.90;;;;;;4880930;29;20043;-74
2023/12/17 02:10:30;;;;;;;6.72;3.00;;;1.70;99.90;;;;;;4880498;29;20069;-74
2023/12/17 02:12:58;;;;;;;6.22;2.65;;;1.60;99.90;;;;;;4879968;29;20068;-74
2023/12/17 02:15:23;;;;;;;5.10;2.35;;;1.70;99.90;;;;;;4880883;29;20045;-74
2023/12/17 02:17:49;;;;;;;6.25;3.13;;;1.80;99.90;;;;;;4880144;29;20048;-74
2023/12/17 02:20:15;;;;;;;7.53;3.03;;;1.80;99.90;;;;;;4897229;29;20155;-74
2023/12/17 02:22:42;;;;;;;6.07;3.17;;;1.90;99.90;;;;;;4897392;29;20119;-75
2023/12/17 02:25:08;;;;;;;7.10;3.45;;;1.80;99.90;;;;;;4899923;29;20458;-74
2023/12/17 02:27:34;;;;;;;6.32;3.60;;;1.60;99.90;;;;;;4897993;29;20063;-74
2023/12/17 02:29:59;;;;;;;8.07;3.05;;;1.50;99.90;;;;;;4898992;29;20040;-76
2023/12/17 02:32:25;;;;;;;5.95;2.97;;;1.50;99.90;;;;;;4899635;29;20071;-74
2023/12/17 02:34:51;;;;;;;5.45;2.85;;;1.60;99.90;;;;;;4898634;29;20036;-74
2023/12/17 02:37:18;;;;;;;5.65;3.10;;;1.40;99.90;;;;;;4897705;29;20118;-73
2023/12/17 02:39:44;;;;;;;6.47;2.80;;;1.40;99.90;;;;;;4900369;29;20120;-74
2023/12/17 02:42:10;;;;;;;5.43;2.85;;;1.60;99.90;;;;;;4897922;29;20039;-74
2023/12/17 02:44:35;;;;;;;5.95;2.72;;;1.70;99.90;;;;;;4898195;29;20024;-74
2023/12/17 02:47:01;;;;;;;7.57;2.60;;;1.80;99.90;;;;;;4898996;29;20044;-74
2023/12/17 02:49:28;;;;;;;6.72;3.00;;;1.70;99.90;;;;;;4898263;29;20107;-73
2023/12/17 02:51:55;;;;;;;7.03;3.13;;;1.60;99.90;;;;;;4897268;29;20124;-74
2023/12/17 02:54:22;;;;;;;6.22;3.38;;;1.40;99.90;;;;;;4899488;29;20032;-74
2023/12/17 02:56:47;;;;;;;4.50;2.28;;;1.20;99.90;;;;;;4897457;29;20055;-74
2023/12/17 02:59:14;;;;;;;7.63;2.92;;;1.00;99.90;;;;;;4897473;29;20032;-75
2023/12/17 03:01:41;;;;;;;6.80;2.83;;;1.20;99.90;;;;;;4897154;29;20032;-73
2023/12/17 03:04:07;;;;;;;5.70;2.72;;;1.40;99.90;;;;;;4897289;29;20036;-74
2023/12/17 03:06:33;;;;;;;7.28;3.10;;;1.60;99.90;;;;;;4898220;29;20035;-74
2023/12/17 03:08:58;;;;;;;5.53;2.88;;;1.60;99.90;;;;;;4898746;29;20043;-74
2023/12/17 03:11:24;;;;;;;5.60;2.45;;;1.60;99.90;;;;;;4896720;29;20036;-74
2023/12/17 03:13:50;;;;;;;5.25;2.60;;;1.60;99.90;;;;;;4897721;29;20028;-74
2023/12/17 03:16:15;;;;;;;5.45;2.70;;;1.70;99.90;;;;;;4899134;29;20079;-74
2023/12/17 03:18:41;;;;;;;5.60;2.80;;;1.80;99.90;;;;;;4897629;29;20128;-73
2023/12/17 03:21:08;;;;;;;7.22;3.58;;;1.80;99.90;;;;;;4896995;29;20032;-74
2023/12/17 03:23:36;;;;;;;4.18;2.20;;;1.60;99.90;;;;;;4898585;29;20034;-74
2023/12/17 03:26:03;;;;;;;5.60;2.70;;;1.40;99.90;;;;;;4898296;29;20064;-74
2023/12/17 03:28:28;;;;;;;4.57;2.40;;;1.70;99.90;;;;;;4897339;29;20135;-73
2023/12/17 03:30:54;;;;;;;5.78;2.90;;;1.70;99.90;;;;;;4898395;29;20055;-74
2023/12/17 03:33:20;;;;;;;5.30;2.53;;;1.70;99.90;;;;;;4899097;29;20079;-74
2023/12/17 03:35:46;;;;;;;4.30;2.13;;;1.70;99.90;;;;;;4897580;29;20036;-74
2023/12/17 03:38:12;;;;;;;5.93;2.67;;;1.70;99.90;;;;;;4897209;29;20545;-73
2023/12/17 03:40:38;;;;;;;4.43;2.20;;;1.90;99.90;;;;;;4898838;29;20119;-73
2023/12/17 03:43:04;;;;;;;5.68;2.25;;;1.80;99.90;;;;;;4897139;29;20584;-74
2023/12/17 03:45:31;;;;;;;5.78;2.63;;;1.70;99.90;;;;;;4897152;29;21121;-74
2023/12/17 03:47:57;;;;;;;8.07;2.95;;;1.80;99.90;;;;;;4897895;29;20088;-74
2023/12/17 03:50:23;;;;;;;5.38;2.38;;;1.80;99.90;;;;;;4896755;29;20523;-73
2023/12/17 03:52:49;;;;;;;7.75;2.83;;;1.90;99.90;;;;;;4895532;29;20111;-74
2023/12/17 03:55:15;;;;;;;6.20;2.90;;;1.70;99.90;;;;;;4898862;29;20055;-73
2023/12/17 03:57:41;;;;;;;7.68;3.58;;;1.60;99.90;;;;;;4896705;29;20061;-73
2023/12/17 04:00:10;;;;;;;6.70;3.50;;;1.50;99.90;;;;;;4896751;29;20386;-74
2023/12/17 04:02:36;;;;;;;7.22;3.40;;;1.40;99.90;;;;;;4894095;29;20043;-73
2023/12/17 04:05:03;;;;;;;8.40;4.18;;;1.40;99.90;;;;;;4892831;29;20040;-74
2023/12/17 04:07:30;;;;;;;7.28;3.65;;;1.30;99.90;;;;;;4892814;29;20046;-74
2023/12/17 04:10:01;;;;;;;12.43;5.05;;;1.30;99.90;;;;;;4892815;29;20099;-74
2023/12/17 04:12:27;;;;;;;7.93;3.63;;;1.20;99.90;;;;;;4893958;29;20040;-74
2023/12/17 04:14:53;;;;;;;6.63;3.35;;;1.30;99.90;;;;;;4893767;29;20051;-74
2023/12/17 04:17:19;;;;;;;7.70;2.70;;;1.20;99.90;;;;;;4894718;29;20044;-75
2023/12/17 04:19:45;;;;;;;6.60;3.20;;;1.20;99.90;;;;;;4895506;29;20060;-73
2023/12/17 04:22:11;;;;;;;7.43;2.97;;;1.30;99.90;;;;;;4892424;29;20493;-74
2023/12/17 04:24:36;;;;;;;7.15;3.70;;;1.30;99.90;;;;;;4893355;29;21382;-74
2023/12/17 04:27:02;;;;;;;7.10;3.65;;;1.20;99.90;;;;;;4895162;29;20035;-74
2023/12/17 04:29:28;;;;;;;8.52;3.92;;;1.00;99.90;;;;;;4880406;29;20064;-73
2023/12/17 04:31:53;;;;;;;5.30;3.00;;;0.90;99.90;;;;;;4896766;29;20183;-74
2023/12/17 04:34:19;;;;;;;5.88;2.53;;;1.10;99.90;;;;;;4897257;29;20035;-73
2023/12/17 04:36:45;;;;;;;4.70;2.10;;;1.40;99.90;;;;;;4897391;29;20047;-74
2023/12/17 04:39:11;;;;;;;3.70;1.88;;;1.80;99.90;;;;;;4896502;29;20127;-75
2023/12/17 04:41:37;;;;;;;5.35;2.22;;;1.90;99.90;;;;;;4896609;29;20111;-74
2023/12/17 04:44:03;;;;;;;5.97;2.80;;;1.70;99.90;;;;;;4897867;29;20712;-74
2023/12/17 04:46:29;;;;;;;5.85;3.22;;;1.50;99.90;;;;;;4897111;29;20052;-73
2023/12/17 04:48:56;;;;;;;6.93;3.58;;;1.30;99.90;;;;;;4895282;29;20036;-73
2023/12/17 04:51:22;;;;;;;12.88;4.40;;;1.30;99.90;;;;;;4894056;29;20039;-73
2023/12/17 04:53:51;;;;;;;5.88;2.92;;;1.30;99.90;;;;;;4875164;29;20786;-74
2023/12/17 04:56:18;;;;;;;6.78;3.50;;;1.40;99.90;;;;;;4892193;29;20040;-74
2023/12/17 04:58:45;;;;;;;5.82;2.90;;;1.10;99.90;;;;;;4895177;29;20563;-74
2023/12/17 05:01:10;;;;;;;5.07;2.53;;;1.20;99.90;;;;;;4895888;29;20522;-74
2023/12/17 05:03:36;;;;;;;4.95;2.20;;;1.20;99.90;;;;;;4894890;29;20087;-74
2023/12/17 05:06:03;;;;;;;7.55;2.90;;;1.40;99.90;;;;;;4893605;29;20047;-75
2023/12/17 05:08:28;;;;;;;6.25;2.67;;;1.30;99.90;;;;;;4893260;29;20047;-74
2023/12/17 05:10:54;;;;;;;6.07;3.05;;;1.20;99.90;;;;;;4897140;29;20040;-73
2023/12/17 05:13:20;;;;;;;4.25;2.05;;;1.20;99.90;;;;;;4896848;29;20063;-74
2023/12/17 05:15:46;;;;;;;4.72;2.13;;;1.30;99.90;;;;;;4897446;29;20141;-74
2023/12/17 05:18:11;;;;;;;4.80;2.00;;;1.50;99.90;;;;;;4895062;29;20975;-74
2023/12/17 05:20:37;;;;;;;5.25;1.92;;;1.60;99.90;;;;;;4892356;29;20040;-74
2023/12/17 05:23:03;;;;;;;4.80;2.28;;;1.60;99.90;;;;;;4892795;29;20075;-74
2023/12/17 05:25:30;;;;;;;7.47;3.25;;;1.50;99.90;;;;;;4893480;29;20032;-73
2023/12/17 05:27:55;;;;;;;11.77;7.07;;;1.40;99.90;;;;;;4891917;29;20383;-74
2023/12/17 05:30:22;;;;;;;14.35;6.55;;;1.20;99.90;;;;;;4894246;29;20036;-73
2023/12/17 05:32:48;;;;;;;8.50;5.70;;;1.10;99.90;;;;;;4896633;29;20032;-73
2023/12/17 05:35:14;;;;;;;10.52;5.65;;;1.00;99.90;;;;;;4892567;29;20062;-73
2023/12/17 05:37:40;;;;;;;10.65;5.13;;;0.80;99.90;;;;;;4876638;29;20483;-73
2023/12/17 05:40:06;;;;;;;7.82;4.10;;;0.80;99.90;;;;;;4895576;29;20041;-74
2023/12/17 05:42:32;;;;;;;9.05;4.18;;;0.70;99.90;;;;;;4895752;29;20036;-73
2023/12/17 05:44:58;;;;;;;6.47;3.53;;;0.80;99.90;;;;;;4896862;29;20032;-74
2023/12/17 05:47:23;;;;;;;9.63;4.88;;;0.70;99.90;;;;;;4895539;29;20040;-73
2023/12/17 05:49:49;;;;;;;8.27;3.85;;;0.70;99.90;;;;;;4895314;29;20040;-73
2023/12/17 05:52:15;;;;;;;7.07;3.30;;;0.70;99.90;;;;;;4895482;29;20412;-74
2023/12/17 05:54:43;;;;;;;6.43;3.10;;;0.70;99.90;;;;;;4896874;29;20484;-73
2023/12/17 05:57:08;;;;;;;6.13;2.72;;;1.00;99.90;;;;;;4895960;29;20044;-73
2023/12/17 05:59:34;;;;;;;4.43;2.00;;;0.90;99.90;;;;;;4893651;29;20033;-73
2023/12/17 06:01:59;;;;;;;3.88;2.13;;;0.80;99.90;;;;;;4896598;29;20075;-73
2023/12/17 06:04:25;;;;;;;4.20;2.03;;;1.00;99.90;;;;;;4894288;29;20805;-73
2023/12/17 06:06:51;;;;;;;5.40;2.13;;;1.10;99.90;;;;;;4894520;29;20036;-73
2023/12/17 06:09:17;;;;;;;4.22;1.88;;;1.10;99.90;;;;;;4893378;29;20055;-74
2023/12/17 06:11:42;;;;;;;6.07;3.45;;;1.10;99.90;;;;;;4893035;29;20035;-73
2023/12/17 06:14:08;;;;;;;5.60;2.50;;;1.00;99.90;;;;;;4892148;29;20072;-75
2023/12/17 06:16:39;;;;;;;5.65;2.22;;;1.00;99.90;;;;;;4892771;29;20051;-73
2023/12/17 06:19:05;;;;;;;4.57;2.40;;;0.90;99.90;;;;;;4891678;29;20067;-74
2023/12/17 06:21:31;;;;;;;4.50;2.35;;;0.90;99.90;;;;;;4891627;29;20062;-74
2023/12/17 06:23:59;;;;;;;6.63;2.45;;;0.80;99.90;;;;;;4892297;29;20047;-74
2023/12/17 06:26:26;;;;;;;5.07;2.42;;;0.70;99.90;;;;;;4893128;29;20079;-74
2023/12/17 06:28:52;;;;;;;5.82;2.13;;;0.90;99.90;;;;;;4891925;29;20815;-73
2023/12/17 06:31:17;;;;;;;3.97;2.05;;;1.10;99.90;;;;;;4892671;29;20558;-73
2023/12/17 06:33:43;;;;;;;4.30;1.80;;;1.20;99.90;;;;;;4892526;29;20044;-74
2023/12/17 06:36:09;;;;;;;5.20;2.33;;;1.20;99.90;;;;;;4892171;29;20032;-73
2023/12/17 06:38:35;;;;;;;3.92;1.70;;;1.30;99.90;;;;;;4889692;29;20043;-74
2023/12/17 06:41:02;;;;;;;4.38;2.00;;;1.50;99.90;;;;;;4891723;29;20032;-73
2023/12/17 06:43:27;;;;;;;5.13;2.17;;;1.70;99.90;;;;;;4891742;29;20047;-74
2023/12/17 06:45:54;;;;;;;6.10;2.30;;;1.80;99.90;;;;;;4892278;29;20032;-74
2023/12/17 06:48:20;;;;;;;4.78;2.10;;;1.80;99.90;;;;;;4893399;29;20677;-74
2023/12/17 06:50:45;;;;;;;5.30;2.70;;;1.80;99.90;;;;;;4890698;29;20119;-75
2023/12/17 06:53:16;;;;;;;3.85;2.20;;;1.90;99.90;;;;;;4890184;29;20115;-76
2023/12/17 06:55:45;;;;;;;4.57;2.13;;;2.00;99.90;;;;;;4894169;29;20052;-77
2023/12/17 06:58:12;;;;;;;4.03;1.95;;;2.20;99.90;;;;;;4898106;29;20055;-76
2023/12/17 07:00:38;;;;;;;5.00;2.38;;;2.20;99.90;;;;;;4891494;29;20043;-76
2023/12/17 07:03:03;;;;;;;4.55;2.20;;;2.20;99.90;;;;;;4891506;29;20079;-76
2023/12/17 07:05:29;;;;;;;4.15;1.80;;;1.90;99.90;;;;;;4893252;29;20505;-76
2023/12/17 07:07:55;;;;;;;4.53;2.22;;;1.80;99.90;;;;;;4891284;29;20044;-75
2023/12/17 07:10:21;;;;;;;6.15;2.25;;;1.70;99.90;;;;;;4891834;29;20607;-76
2023/12/17 07:12:47;;;;;;;3.83;1.92;;;1.80;99.90;;;;;;4892781;29;20474;-78
2023/12/17 07:15:13;;;;;;;4.00;2.22;;;2.30;99.90;;;;;;4894760;29;20043;-75
2023/12/17 07:17:39;;;;;;;6.35;3.05;;;2.70;99.90;;;;;;4891598;29;20604;-74
2023/12/17 07:20:05;;;;;;;5.28;2.58;;;2.20;99.90;;;;;;4891161;29;20064;-74
2023/12/17 07:22:31;;;;;;;5.70;2.63;;;1.90;99.90;;;;;;4889696;29;20032;-74
2023/12/17 07:24:57;;;;;;;7.72;3.92;;;1.50;99.90;;;;;;4887100;29;20688;-74
2023/12/17 07:27:22;;;;;;;6.93;2.78;;;1.40;99.90;;;;;;4890463;29;20052;-74
2023/12/17 07:29:48;;;;;;;4.13;1.90;;;1.90;99.90;;;;;;4890992;29;20028;-74
2023/12/17 07:32:13;;;;;;;4.40;2.47;;;2.40;99.90;;;;;;4888596;29;20043;-74
2023/12/17 07:34:39;;;;;;;4.90;2.00;;;2.30;99.90;;;;;;4890069;29;20036;-74
2023/12/17 07:37:05;;;;;;;6.13;2.67;;;2.30;99.90;;;;;;4890234;29;20054;-74
2023/12/17 07:39:31;;;;;;;13.13;6.97;;;2.60;99.90;;;;;;4889922;29;20071;-73
2023/12/17 07:41:57;;;;;;;7.70;3.75;;;2.60;99.90;;;;;;4889722;29;20384;-74
2023/12/17 07:44:22;;;;;;;13.77;7.00;;;2.10;99.90;;;;;;4891037;29;20028;-73
2023/12/17 07:46:48;;;;;;;24.48;12.15;;;2.10;99.90;;;;;;4889756;29;20040;-74
2023/12/17 07:49:13;;;;;;;29.10;17.45;;;2.00;99.90;;;;;;4890555;29;20637;-74
2023/12/17 07:51:39;;;;;;;10.70;6.45;;;1.80;99.90;;;;;;4897300;29;20186;-75
2023/12/17 07:54:06;;;;;;;7.07;3.30;;;1.70;99.90;;;;;;4896755;29;20044;-74
2023/12/17 07:56:32;;;;;;;4.72;2.30;;;2.20;99.90;;;;;;4896968;29;20130;-74
2023/12/17 07:58:58;;;;;;;5.38;2.58;;;2.40;99.90;;;;;;4898450;29;20024;-75
2023/12/17 08:01:30;;;;;;;6.03;2.95;;;2.40;99.90;;;;;;4897021;29;20036;-75
2023/12/17 08:03:57;;;;;;;4.97;2.97;;;2.20;99.90;;;;;;4896542;29;20044;-74
2023/12/17 08:06:23;;;;;;;6.45;3.70;;;1.80;99.90;;;;;;4897695;29;20499;-73
2023/12/17 08:08:53;;;;;;;5.63;3.47;;;1.60;99.90;;;;;;4897868;29;20024;-74
2023/12/17 08:11:19;;;;;;;8.07;3.78;;;1.60;99.90;;;;;;4896644;29;20083;-74
2023/12/17 08:13:45;;;;;;;6.90;3.08;;;1.50;99.90;;;;;;4896123;29;20582;-74
2023/12/17 08:16:11;;;;;;;7.45;3.10;;;1.40;99.90;;;;;;4897458;29;20031;-74
2023/12/17 08:18:37;;;;;;;5.57;3.25;;;2.10;99.90;;;;;;4895496;29;23354;-73
2023/12/17 08:21:03;;;;;;;6.18;3.03;;;2.00;99.90;;;;;;4897357;29;20028;-74
2023/12/17 08:23:29;;;;;;;5.47;2.70;;;2.10;99.90;;;;;;4897671;29;20385;-74
2023/12/17 08:25:55;;;;;;;5.03;2.40;;;2.00;99.90;;;;;;4902327;29;20095;-75
2023/12/17 08:28:21;;;;;;;5.32;2.50;;;2.00;99.90;;;;;;4901954;29;20038;-73
2023/12/17 08:30:48;;;;;;;6.00;2.80;;;2.10;99.90;;;;;;4902256;29;20634;-73
2023/12/17 08:33:14;;;;;;;6.03;2.92;;;2.10;99.90;;;;;;4902817;29;20028;-74
2023/12/17 08:35:41;;;;;;;7.05;3.38;;;1.70;99.90;;;;;;4902530;29;20040;-73
2023/12/17 08:38:07;;;;;;;8.07;3.47;;;1.70;99.90;;;;;;4902908;29;20121;-73
2023/12/17 08:40:33;;;;;;;11.00;3.60;;;1.60;99.90;;;;;;4903815;29;20047;-74
2023/12/17 08:43:03;;;;;;;6.45;3.45;;;1.50;99.90;;;;;;4905073;29;20062;-73
2023/12/17 08:45:30;;;;;;;7.07;3.67;;;1.40;99.90;;;;;;4905244;29;20044;-74
2023/12/17 08:47:56;;;;;;;7.57;4.30;;;1.40;99.90;;;;;;4905231;29;20623;-73
2023/12/17 08:50:22;;;;;;;8.60;4.20;;;1.50;99.90;;;;;;4904411;29;20047;-74
2023/12/17 08:52:48;;;;;;;6.90;4.13;;;1.40;99.90;;;;;;4905163;29;20589;-73
2023/12/17 08:55:14;;;;;;;7.45;3.58;;;1.50;99.90;;;;;;4905301;29;20048;-73
2023/12/17 08:57:39;;;;;;;8.40;3.90;;;1.50;99.90;;;;;;4904597;29;20506;-73
2023/12/17 09:00:05;;;;;;;5.32;3.20;;;1.50;99.90;;;;;;4901746;29;20071;-74
2023/12/17 09:02:33;;;;;;;6.13;2.83;;;1.70;99.90;;;;;;4898870;29;20036;-73
2023/12/17 09:04:59;;;;;;;7.38;2.97;;;1.90;99.90;;;;;;4898515;29;20036;-74
2023/12/17 09:07:25;;;;;;;5.45;2.78;;;2.20;99.90;;;;;;4899155;29;20039;-76
2023/12/17 09:09:50;;;;;;;4.70;2.47;;;2.40;99.90;;;;;;4899799;29;20032;-74
2023/12/17 09:12:16;;;;;;;5.35;2.35;;;2.50;99.90;;;;;;4899160;29;20123;-74
2023/12/17 09:14:42;;;;;;;6.97;3.92;;;2.50;99.90;;;;;;4899466;29;20052;-74
2023/12/17 09:17:08;;;;;;;8.18;4.20;;;2.50;99.90;;;;;;4899520;29;20052;-75
2023/12/17 09:19:34;;;;;;;6.03;2.83;;;2.40;99.90;;;;;;4897241;29;20562;-75
2023/12/17 09:22:00;;;;;;;7.15;3.47;;;2.50;99.90;;;;;;4898982;29;20044;-74
2023/12/17 09:24:26;;;;;;;6.13;3.60;;;2.30;99.90;;;;;;4896145;29;20570;-74
2023/12/17 09:26:51;;;;;;;7.40;4.03;;;2.20;99.90;;;;;;4893188;29;20035;-74
2023/12/17 09:29:17;;;;;;;8.15;3.72;;;2.20;99.90;;;;;;4893668;29;20044;-73
2023/12/17 09:31:43;;;;;;;6.93;3.65;;;2.20;99.90;;;;;;4892504;29;20043;-75
2023/12/17 09:34:09;;;;;;;5.88;2.97;;;2.30;99.90;;;;;;4895081;29;20042;-73
2023/12/17 09:36:35;;;;;;;6.38;2.70;;;2.40;99.90;;;;;;4892884;29;20506;-74
2023/12/17 09:39:00;;;;;;;6.43;2.70;;;2.30;99.90;;;;;;4893296;29;20042;-74
2023/12/17 09:41:26;;;;;;;5.93;3.28;;;2.30;99.90;;;;;;4893789;29;20032;-75
2023/12/17 09:43:52;;;;;;;7.10;3.35;;;2.30;99.90;;;;;;4892832;29;20131;-74
2023/12/17 09:46:18;;;;;;;6.18;3.03;;;2.30;99.90;;;;;;4892079;29;20040;-74
2023/12/17 09:48:44;;;;;;;6.95;3.28;;;2.30;99.90;;;;;;4892927;29;20043;-74
2023/12/17 09:51:12;;;;;;;6.32;3.00;;;2.40;99.90;;;;;;4893452;29;20044;-74
2023/12/17 09:53:38;;;;;;;4.88;2.47;;;2.40;99.90;;;;;;4892234;29;20826;-74
2023/12/17 09:56:04;;;;;;;6.85;3.67;;;2.60;99.90;;;;;;4892962;29;20032;-74
2023/12/17 09:58:30;;;;;;;4.78;2.90;;;2.60;99.90;;;;;;4894049;29;20036;-74
2023/12/17 10:00:55;;;;;;;6.55;3.60;;;2.50;99.90;;;;;;4892354;29;20119;-74
2023/12/17 10:03:21;;;;;;;4.32;2.50;;;2.50;99.90;;;;;;4892653;29;20040;-73
2023/12/17 10:05:51;;;;;;;5.47;2.72;;;2.70;99.90;;;;;;4893314;29;20475;-74
2023/12/17 10:08:17;;;;;;;5.13;2.40;;;2.70;99.90;;;;;;4893079;29;20724;-74
2023/12/17 10:10:43;;;;;;;6.57;2.90;;;2.60;99.90;;;;;;4892082;29;20144;-74
2023/12/17 10:13:09;;;;;;;6.30;2.70;;;2.50;99.90;;;;;;4893203;29;20036;-73
2023/12/17 10:15:36;;;;;;;5.03;2.58;;;2.50;99.90;;;;;;4892719;29;20115;-73
2023/12/17 10:18:03;;;;;;;7.13;2.75;;;2.50;99.90;;;;;;4892114;29;21580;-73
2023/12/17 10:20:29;;;;;;;6.13;3.13;;;2.40;99.90;;;;;;4891603;29;20394;-73
2023/12/17 10:22:59;;;;;;;6.22;3.03;;;2.40;99.90;;;;;;4886876;29;20063;-73
2023/12/17 10:25:25;;;;;;;6.88;3.42;;;2.40;99.90;;;;;;4888320;29;20035;-73
2023/12/17 10:27:58;;;;;;;6.97;3.47;;;2.50;99.90;;;;;;4892347;29;20863;-74
2023/12/17 10:30:29;;;;;;;6.68;3.95;;;2.50;99.90;;;;;;4892661;29;20483;-74
2023/12/17 10:32:56;;;;;;;7.65;3.55;;;2.50;99.90;;;;;;4891189;29;21371;-72
2023/12/17 10:35:27;;;;;;;5.88;3.10;;;2.70;99.90;;;;;;4892455;29;20041;-74
2023/12/17 10:37:55;;;;;;;4.80;2.85;;;3.00;99.90;;;;;;4892569;29;20107;-74
2023/12/17 10:40:21;;;;;;;6.80;3.13;;;3.20;99.90;;;;;;4891219;29;20032;-73
2023/12/17 10:42:49;;;;;;;5.68;2.97;;;3.10;99.90;;;;;;4892323;29;20352;-74
2023/12/17 10:45:20;;;;;;;5.90;3.33;;;3.10;99.90;;;;;;4892697;29;20032;-74
2023/12/17 10:47:58;;;;;;;7.53;3.42;;;3.00;99.90;;;;;;4891763;29;20051;-73
2023/12/17 10:50:26;;;;;;;5.75;2.72;;;3.00;99.90;;;;;;4890687;29;20260;-74
2023/12/17 10:52:52;;;;;;;5.70;3.25;;;3.20;99.90;;;;;;4891271;29;20040;-74
2023/12/17 10:55:19;;;;;;;7.45;3.63;;;3.30;99.90;;;;;;4892627;29;20487;-73
2023/12/17 10:57:59;;;;;;;5.93;3.40;;;3.40;99.90;;;;;;4891274;29;20506;-74
2023/12/17 11:00:29;;;;;;;5.70;3.33;;;3.60;99.90;;;;;;4891012;29;20036;-74
2023/12/17 11:02:58;;;;;;;8.00;3.90;;;3.70;99.90;;;;;;4892291;29;20383;-74
2023/12/17 11:05:24;;;;;;;5.88;3.08;;;3.90;99.90;;;;;;4892098;29;20059;-74
2023/12/17 11:07:50;;;;;;;6.50;3.35;;;4.10;99.90;;;;;;4889490;29;20115;-74
2023/12/17 11:10:17;;;;;;;7.35;3.85;;;4.20;99.90;;;;;;4889868;29;20043;-74
2023/12/17 11:12:46;;;;;;;8.48;3.35;;;4.30;99.90;;;;;;4891898;29;20043;-73
2023/12/17 11:15:12;;;;;;;6.32;3.85;;;4.30;99.90;;;;;;4891810;29;20047;-74
2023/12/17 11:17:38;;;;;;;6.15;3.60;;;4.40;99.90;;;;;;4890198;29;20036;-74
2023/12/17 11:20:05;;;;;;;11.43;3.92;;;4.70;99.90;;;;;;4890906;29;20063;-74
2023/12/17 11:22:38;;;;;;;6.32;3.28;;;4.80;99.90;;;;;;4892705;29;20043;-74
2023/12/17 11:25:08;;;;;;;5.82;3.30;;;4.80;99.90;;;;;;4891168;29;20032;-74
2023/12/17 11:27:35;;;;;;;6.60;3.22;;;4.90;99.90;;;;;;4890098;29;20061;-74
2023/12/17 11:30:01;;;;;;;5.15;3.10;;;5.00;99.90;;;;;;4890071;29;20107;-74
2023/12/17 11:32:27;;;;;;;11.70;7.60;;;5.00;99.90;;;;;;4888300;29;20075;-74
2023/12/17 11:34:53;;;;;;;9.05;5.20;;;5.20;99.90;;;;;;4891478;29;21437;-74
2023/12/17 11:37:21;;;;;;;18.17;10.48;;;5.30;99.90;;;;;;4892209;29;20094;-74
2023/12/17 11:39:48;;;;;;;8.75;6.10;;;5.50;99.90;;;;;;4892352;29;20466;-75
2023/12/17 11:42:14;;;;;;;7.50;4.75;;;5.50;99.90;;;;;;4891016;29;20639;-74
2023/12/17 11:44:49;;;;;;;8.43;4.80;;;5.60;99.90;;;;;;4891794;29;20032;-74
2023/12/17 11:47:16;;;;;;;10.88;4.00;;;5.60;99.90;;;;;;4891957;29;20506;-75
2023/12/17 11:49:44;;;;;;;5.50;3.13;;;5.60;99.90;;;;;;4891159;29;20032;-74
2023/12/17 11:52:13;;;;;;;7.85;3.88;;;5.60;99.90;;;;;;4893854;29;20672;-75
2023/12/17 11:54:39;;;;;;;5.90;3.05;;;5.70;99.90;;;;;;4895162;29;20964;-75
2023/12/17 11:57:20;;;;;;;7.85;4.30;;;5.80;99.90;;;;;;4893136;29;20047;-74
2023/12/17 11:59:46;;;;;;;5.80;3.33;;;5.80;99.90;;;;;;4890251;29;20076;-74
2023/12/17 12:02:15;;;;;;;5.03;2.67;;;5.80;99.60;;;;;;4892118;29;20123;-74
2023/12/17 12:04:41;;;;;;;5.85;3.00;;;6.10;99.90;;;;;;4894381;29;20079;-74
2023/12/17 12:07:11;;;;;;;6.55;2.90;;;6.10;99.90;;;;;;4892999;29;20037;-74
2023/12/17 12:09:37;;;;;;;7.47;2.72;;;6.10;99.50;;;;;;4894264;29;20394;-74
2023/12/17 12:12:15;;;;;;;6.80;3.47;;;6.10;99.50;;;;;;4892790;29;20195;-74
2023/12/17 12:14:43;;;;;;;6.47;3.40;;;6.10;99.50;;;;;;4894950;29;20044;-75
2023/12/17 12:17:35;;;;;;;6.75;3.33;;;6.10;99.30;;;;;;4893990;29;20813;-73
2023/12/17 12:20:01;;;;;;;6.80;3.42;;;6.20;98.90;;;;;;4893951;29;20070;-75
2023/12/17 12:22:29;;;;;;;4.18;2.65;;;6.20;99.20;;;;;;4892591;29;20040;-74
2023/12/17 12:24:56;;;;;;;8.07;3.72;;;6.20;99.00;;;;;;4892094;29;20040;-74
2023/12/17 12:27:22;;;;;;;5.90;3.00;;;6.20;99.00;;;;;;4893674;29;20070;-74
2023/12/17 12:29:48;;;;;;;5.45;3.20;;;6.30;99.10;;;;;;4892684;29;20077;-73
2023/12/17 12:32:34;;;;;;;5.57;3.35;;;6.30;99.10;;;;;;4892517;29;20115;-76
2023/12/17 12:35:01;;;;;;;7.78;4.20;;;6.40;99.00;;;;;;4893279;29;20024;-76
2023/12/17 12:37:37;;;;;;;6.20;3.05;;;6.40;99.10;;;;;;4897132;29;20143;-74
2023/12/17 12:40:05;;;;;;;6.47;2.78;;;6.40;98.30;;;;;;4896474;29;20044;-76
2023/12/17 12:42:32;;;;;;;6.40;3.22;;;6.60;98.50;;;;;;4894411;29;20044;-75
2023/12/17 12:44:58;;;;;;;9.55;2.92;;;6.70;98.10;;;;;;4893604;29;20036;-76
2023/12/17 12:47:24;;;;;;;38.08;18.50;;;6.60;97.90;;;;;;4897189;29;20040;-78
2023/12/17 12:49:50;;;;;;;23.45;10.38;;;6.70;98.60;;;;;;4895968;29;20040;-74
2023/12/17 12:52:17;;;;;;;12.70;7.10;;;6.80;98.30;;;;;;4894736;29;20048;-75